sensor_id;sensor_type;location;lat;lon;timestamp;temperature;humidity
66962;HTU21D;53897;51.126;5.868;2024-02-04T00:01:20;21.74;46.85
66962;HTU21D;53897;51.126;5.868;2024-02-04T00:03:46;21.73;46.85
66962;HTU21D;53897;51.126;5.868;2024-02-04T00:06:11;21.72;46.83
66962;HTU21D;53897;51.126;5.868;2024-02-04T00:08:37;21.70;46.84
66962;HTU21D;53897;51.126;5.868;2024-02-04T00:11:03;21.69;46.83
66962;HTU21D;53897;51.126;5.868;2024-02-04T00:13:34;21.67;46.83
66962;HTU21D;53897;51.126;5.868;2024-02-04T00:15:59;21.66;46.82
66962;HTU21D;53897;51.126;5.868;2024-02-04T00:18:26;21.66;46.83
66962;HTU21D;53897;51.126;5.868;2024-02-04T00:20:51;21.64;46.81
66962;HTU21D;53897;51.126;5.868;2024-02-04T00:23:17;21.62;46.78
66962;HTU21D;53897;51.126;5.868;2024-02-04T00:25:43;21.61;46.75
66962;HTU21D;53897;51.126;5.868;2024-02-04T00:28:08;21.59;46.70
66962;HTU21D;53897;51.126;5.868;2024-02-04T00:30:37;21.58;46.67
66962;HTU21D;53897;51.126;5.868;2024-02-04T00:33:04;21.57;46.66
66962;HTU21D;53897;51.126;5.868;2024-02-04T00:35:30;21.55;46.63
66962;HTU21D;53897;51.126;5.868;2024-02-04T00:37:59;21.54;46.57
66962;HTU21D;53897;51.126;5.868;2024-02-04T00:40:25;21.53;46.58
66962;HTU21D;53897;51.126;5.868;2024-02-04T00:42:52;21.51;46.58
66962;HTU21D;53897;51.126;5.868;2024-02-04T00:45:17;21.51;46.55
66962;HTU21D;53897;51.126;5.868;2024-02-04T00:47:43;21.50;46.51
66962;HTU21D;53897;51.126;5.868;2024-02-04T00:50:09;21.47;46.50
66962;HTU21D;53897;51.126;5.868;2024-02-04T00:52:35;21.47;46.48
66962;HTU21D;53897;51.126;5.868;2024-02-04T00:55:00;21.45;46.47
66962;HTU21D;53897;51.126;5.868;2024-02-04T00:57:26;21.44;46.44
66962;HTU21D;53897;51.126;5.868;2024-02-04T00:59:53;21.45;46.42
66962;HTU21D;53897;51.126;5.868;2024-02-04T01:02:18;21.42;46.41
66962;HTU21D;53897;51.126;5.868;2024-02-04T01:04:44;21.43;46.41
66962;HTU21D;53897;51.126;5.868;2024-02-04T01:07:10;21.40;46.41
66962;HTU21D;53897;51.126;5.868;2024-02-04T01:09:35;21.37;46.38
66962;HTU21D;53897;51.126;5.868;2024-02-04T01:12:01;21.37;46.40
66962;HTU21D;53897;51.126;5.868;2024-02-04T01:14:27;21.36;46.39
66962;HTU21D;53897;51.126;5.868;2024-02-04T01:16:53;21.36;46.37
66962;HTU21D;53897;51.126;5.868;2024-02-04T01:19:18;21.33;46.36
66962;HTU21D;53897;51.126;5.868;2024-02-04T01:21:44;21.34;46.37
66962;HTU21D;53897;51.126;5.868;2024-02-04T01:24:10;21.33;46.36
66962;HTU21D;53897;51.126;5.868;2024-02-04T01:26:35;21.31;46.34
66962;HTU21D;53897;51.126;5.868;2024-02-04T01:29:04;21.30;46.36
66962;HTU21D;53897;51.126;5.868;2024-02-04T01:31:30;21.30;46.35
66962;HTU21D;53897;51.126;5.868;2024-02-04T01:33:57;21.27;46.35
66962;HTU21D;53897;51.126;5.868;2024-02-04T01:36:23;21.25;46.36
66962;HTU21D;53897;51.126;5.868;2024-02-04T01:38:49;21.27;46.35
66962;HTU21D;53897;51.126;5.868;2024-02-04T01:41:15;21.23;46.34
66962;HTU21D;53897;51.126;5.868;2024-02-04T01:43:40;21.22;46.33
66962;HTU21D;53897;51.126;5.868;2024-02-04T01:46:07;21.21;46.32
66962;HTU21D;53897;51.126;5.868;2024-02-04T01:48:34;21.20;46.32
66962;HTU21D;53897;51.126;5.868;2024-02-04T01:51:01;21.19;46.33
66962;HTU21D;53897;51.126;5.868;2024-02-04T01:53:29;21.17;46.35
66962;HTU21D;53897;51.126;5.868;2024-02-04T01:55:58;21.17;46.35
66962;HTU21D;53897;51.126;5.868;2024-02-04T01:58:24;21.16;46.32
66962;HTU21D;53897;51.126;5.868;2024-02-04T02:00:51;21.15;46.32
66962;HTU21D;53897;51.126;5.868;2024-02-04T02:03:17;21.13;46.31
66962;HTU21D;53897;51.126;5.868;2024-02-04T02:05:42;21.13;46.34
66962;HTU21D;53897;51.126;5.868;2024-02-04T02:08:09;21.10;46.33
66962;HTU21D;53897;51.126;5.868;2024-02-04T02:10:35;21.09;46.30
66962;HTU21D;53897;51.126;5.868;2024-02-04T02:13:25;21.09;46.30
66962;HTU21D;53897;51.126;5.868;2024-02-04T02:16:07;21.07;46.30
66962;HTU21D;53897;51.126;5.868;2024-02-04T02:18:48;21.06;46.31
66962;HTU21D;53897;51.126;5.868;2024-02-04T02:26:49;21.03;46.27
66962;HTU21D;53897;51.126;5.868;2024-02-04T02:29:15;21.01;46.28
66962;HTU21D;53897;51.126;5.868;2024-02-04T02:31:42;21.01;46.26
66962;HTU21D;53897;51.126;5.868;2024-02-04T02:34:09;21.00;46.24
66962;HTU21D;53897;51.126;5.868;2024-02-04T02:36:44;20.98;46.23
66962;HTU21D;53897;51.126;5.868;2024-02-04T02:39:28;20.99;46.23
66962;HTU21D;53897;51.126;5.868;2024-02-04T02:41:58;20.98;46.22
66962;HTU21D;53897;51.126;5.868;2024-02-04T02:44:29;20.96;46.24
66962;HTU21D;53897;51.126;5.868;2024-02-04T02:46:57;20.94;46.24
66962;HTU21D;53897;51.126;5.868;2024-02-04T02:49:24;20.93;46.25
66962;HTU21D;53897;51.126;5.868;2024-02-04T02:51:50;20.92;46.25
66962;HTU21D;53897;51.126;5.868;2024-02-04T02:54:15;20.91;46.23
66962;HTU21D;53897;51.126;5.868;2024-02-04T02:56:41;20.90;46.23
66962;HTU21D;53897;51.126;5.868;2024-02-04T02:59:07;20.90;46.22
66962;HTU21D;53897;51.126;5.868;2024-02-04T03:01:33;20.89;46.22
66962;HTU21D;53897;51.126;5.868;2024-02-04T03:03:59;20.88;46.22
66962;HTU21D;53897;51.126;5.868;2024-02-04T03:06:25;20.87;46.21
66962;HTU21D;53897;51.126;5.868;2024-02-04T03:08:51;20.86;46.21
66962;HTU21D;53897;51.126;5.868;2024-02-04T03:11:16;20.86;46.20
66962;HTU21D;53897;51.126;5.868;2024-02-04T03:13:42;20.85;46.20
66962;HTU21D;53897;51.126;5.868;2024-02-04T03:16:14;20.83;46.20
66962;HTU21D;53897;51.126;5.868;2024-02-04T03:18:41;20.83;46.20
66962;HTU21D;53897;51.126;5.868;2024-02-04T03:21:16;20.81;46.19
66962;HTU21D;53897;51.126;5.868;2024-02-04T03:23:44;20.83;46.17
66962;HTU21D;53897;51.126;5.868;2024-02-04T03:26:11;20.80;46.18
66962;HTU21D;53897;51.126;5.868;2024-02-04T03:28:37;20.79;46.17
66962;HTU21D;53897;51.126;5.868;2024-02-04T03:31:04;20.78;46.19
66962;HTU21D;53897;51.126;5.868;2024-02-04T03:33:30;20.78;46.20
66962;HTU21D;53897;51.126;5.868;2024-02-04T03:35:55;20.75;46.20
66962;HTU21D;53897;51.126;5.868;2024-02-04T03:38:21;20.74;46.19
66962;HTU21D;53897;51.126;5.868;2024-02-04T03:40:47;20.75;46.17
66962;HTU21D;53897;51.126;5.868;2024-02-04T03:43:15;20.73;46.19
66962;HTU21D;53897;51.126;5.868;2024-02-04T03:45:41;20.72;46.18
66962;HTU21D;53897;51.126;5.868;2024-02-04T03:48:07;20.71;46.19
66962;HTU21D;53897;51.126;5.868;2024-02-04T03:50:33;20.72;46.19
66962;HTU21D;53897;51.126;5.868;2024-02-04T03:52:58;20.71;46.19
66962;HTU21D;53897;51.126;5.868;2024-02-04T03:55:25;20.70;46.19
66962;HTU21D;53897;51.126;5.868;2024-02-04T03:57:51;20.69;46.19
66962;HTU21D;53897;51.126;5.868;2024-02-04T04:00:17;20.69;46.18
66962;HTU21D;53897;51.126;5.868;2024-02-04T04:02:43;20.66;46.18
66962;HTU21D;53897;51.126;5.868;2024-02-04T04:05:12;20.66;46.18
66962;HTU21D;53897;51.126;5.868;2024-02-04T04:07:39;20.65;46.17
66962;HTU21D;53897;51.126;5.868;2024-02-04T04:10:05;20.65;46.18
66962;HTU21D;53897;51.126;5.868;2024-02-04T04:12:31;20.63;46.17
66962;HTU21D;53897;51.126;5.868;2024-02-04T04:14:57;20.63;46.18
66962;HTU21D;53897;51.126;5.868;2024-02-04T04:17:23;20.63;46.18
66962;HTU21D;53897;51.126;5.868;2024-02-04T04:19:48;20.61;46.16
66962;HTU21D;53897;51.126;5.868;2024-02-04T04:22:14;20.61;46.17
66962;HTU21D;53897;51.126;5.868;2024-02-04T04:24:40;20.61;46.17
66962;HTU21D;53897;51.126;5.868;2024-02-04T04:27:06;20.59;46.17
66962;HTU21D;53897;51.126;5.868;2024-02-04T04:29:31;20.58;46.15
66962;HTU21D;53897;51.126;5.868;2024-02-04T04:31:57;20.59;46.17
66962;HTU21D;53897;51.126;5.868;2024-02-04T04:34:23;20.57;46.16
66962;HTU21D;53897;51.126;5.868;2024-02-04T04:36:49;20.57;46.16
66962;HTU21D;53897;51.126;5.868;2024-02-04T04:39:14;20.56;46.15
66962;HTU21D;53897;51.126;5.868;2024-02-04T04:41:44;20.55;46.15
66962;HTU21D;53897;51.126;5.868;2024-02-04T04:44:11;20.54;46.15
66962;HTU21D;53897;51.126;5.868;2024-02-04T04:46:40;20.53;46.16
66962;HTU21D;53897;51.126;5.868;2024-02-04T04:49:06;20.53;46.15
66962;HTU21D;53897;51.126;5.868;2024-02-04T04:51:32;20.53;46.15
66962;HTU21D;53897;51.126;5.868;2024-02-04T04:53:58;20.51;46.14
66962;HTU21D;53897;51.126;5.868;2024-02-04T04:56:23;20.51;46.15
66962;HTU21D;53897;51.126;5.868;2024-02-04T04:58:49;20.49;46.14
66962;HTU21D;53897;51.126;5.868;2024-02-04T05:01:16;20.50;46.14
66962;HTU21D;53897;51.126;5.868;2024-02-04T05:03:43;20.48;46.14
66962;HTU21D;53897;51.126;5.868;2024-02-04T05:06:09;20.48;46.14
66962;HTU21D;53897;51.126;5.868;2024-02-04T05:08:35;20.47;46.13
66962;HTU21D;53897;51.126;5.868;2024-02-04T05:11:00;20.45;46.14
66962;HTU21D;53897;51.126;5.868;2024-02-04T05:13:26;20.45;46.14
66962;HTU21D;53897;51.126;5.868;2024-02-04T05:15:52;20.45;46.14
66962;HTU21D;53897;51.126;5.868;2024-02-04T05:18:17;20.45;46.13
66962;HTU21D;53897;51.126;5.868;2024-02-04T05:20:43;20.44;46.12
66962;HTU21D;53897;51.126;5.868;2024-02-04T05:23:09;20.43;46.13
66962;HTU21D;53897;51.126;5.868;2024-02-04T05:25:35;20.42;46.12
66962;HTU21D;53897;51.126;5.868;2024-02-04T05:28:01;20.41;46.12
66962;HTU21D;53897;51.126;5.868;2024-02-04T05:30:27;20.42;46.13
66962;HTU21D;53897;51.126;5.868;2024-02-04T05:32:53;20.40;46.12
66962;HTU21D;53897;51.126;5.868;2024-02-04T05:35:18;20.39;46.13
66962;HTU21D;53897;51.126;5.868;2024-02-04T05:37:44;20.39;46.13
66962;HTU21D;53897;51.126;5.868;2024-02-04T05:40:10;20.39;46.15
66962;HTU21D;53897;51.126;5.868;2024-02-04T05:42:37;20.37;46.15
66962;HTU21D;53897;51.126;5.868;2024-02-04T05:45:03;20.36;46.14
66962;HTU21D;53897;51.126;5.868;2024-02-04T05:47:31;20.34;46.13
66962;HTU21D;53897;51.126;5.868;2024-02-04T05:49:56;20.34;46.12
66962;HTU21D;53897;51.126;5.868;2024-02-04T05:52:22;20.34;46.12
66962;HTU21D;53897;51.126;5.868;2024-02-04T05:54:48;20.34;46.14
66962;HTU21D;53897;51.126;5.868;2024-02-04T05:57:13;20.32;46.15
66962;HTU21D;53897;51.126;5.868;2024-02-04T05:59:39;20.33;46.13
66962;HTU21D;53897;51.126;5.868;2024-02-04T06:02:05;20.32;46.15
66962;HTU21D;53897;51.126;5.868;2024-02-04T06:04:31;20.32;46.14
66962;HTU21D;53897;51.126;5.868;2024-02-04T06:06:57;20.31;46.12
66962;HTU21D;53897;51.126;5.868;2024-02-04T06:09:23;20.29;46.16
66962;HTU21D;53897;51.126;5.868;2024-02-04T06:11:49;20.30;46.15
66962;HTU21D;53897;51.126;5.868;2024-02-04T06:14:15;20.31;46.15
66962;HTU21D;53897;51.126;5.868;2024-02-04T06:16:40;20.32;46.16
66962;HTU21D;53897;51.126;5.868;2024-02-04T06:19:06;20.34;46.14
66962;HTU21D;53897;51.126;5.868;2024-02-04T06:21:34;20.34;46.15
66962;HTU21D;53897;51.126;5.868;2024-02-04T06:24:00;20.36;46.16
66962;HTU21D;53897;51.126;5.868;2024-02-04T06:26:26;20.37;46.16
66962;HTU21D;53897;51.126;5.868;2024-02-04T06:28:51;20.41;46.18
66962;HTU21D;53897;51.126;5.868;2024-02-04T06:31:17;20.42;46.25
66962;HTU21D;53897;51.126;5.868;2024-02-04T06:33:43;20.43;46.28
66962;HTU21D;53897;51.126;5.868;2024-02-04T06:36:10;20.46;46.35
66962;HTU21D;53897;51.126;5.868;2024-02-04T06:38:36;20.47;46.35
66962;HTU21D;53897;51.126;5.868;2024-02-04T06:41:02;20.48;46.35
66962;HTU21D;53897;51.126;5.868;2024-02-04T06:43:28;20.50;46.38
66962;HTU21D;53897;51.126;5.868;2024-02-04T06:45:54;20.51;46.42
66962;HTU21D;53897;51.126;5.868;2024-02-04T06:48:21;20.54;46.47
66962;HTU21D;53897;51.126;5.868;2024-02-04T06:50:47;20.56;46.56
66962;HTU21D;53897;51.126;5.868;2024-02-04T06:53:14;20.58;46.60
66962;HTU21D;53897;51.126;5.868;2024-02-04T06:55:40;20.60;46.60
66962;HTU21D;53897;51.126;5.868;2024-02-04T06:58:06;20.62;46.62
66962;HTU21D;53897;51.126;5.868;2024-02-04T07:00:32;20.65;46.64
66962;HTU21D;53897;51.126;5.868;2024-02-04T07:02:58;20.66;46.66
66962;HTU21D;53897;51.126;5.868;2024-02-04T07:05:24;20.69;46.65
66962;HTU21D;53897;51.126;5.868;2024-02-04T07:07:50;20.72;46.68
66962;HTU21D;53897;51.126;5.868;2024-02-04T07:10:17;20.74;46.70
66962;HTU21D;53897;51.126;5.868;2024-02-04T07:12:43;20.75;46.70
66962;HTU21D;53897;51.126;5.868;2024-02-04T07:15:09;20.77;46.70
66962;HTU21D;53897;51.126;5.868;2024-02-04T07:17:35;20.80;46.71
66962;HTU21D;53897;51.126;5.868;2024-02-04T07:20:02;20.83;46.70
66962;HTU21D;53897;51.126;5.868;2024-02-04T07:22:28;20.84;46.70
66962;HTU21D;53897;51.126;5.868;2024-02-04T07:24:54;20.87;46.70
66962;HTU21D;53897;51.126;5.868;2024-02-04T07:27:20;20.89;46.68
66962;HTU21D;53897;51.126;5.868;2024-02-04T07:29:46;20.91;46.68
66962;HTU21D;53897;51.126;5.868;2024-02-04T07:32:15;20.91;46.73
66962;HTU21D;53897;51.126;5.868;2024-02-04T07:34:41;20.93;46.75
66962;HTU21D;53897;51.126;5.868;2024-02-04T07:37:07;20.95;46.78
66962;HTU21D;53897;51.126;5.868;2024-02-04T07:39:33;20.98;46.83
66962;HTU21D;53897;51.126;5.868;2024-02-04T07:41:58;21.00;46.86
66962;HTU21D;53897;51.126;5.868;2024-02-04T07:44:28;21.02;46.96
66962;HTU21D;53897;51.126;5.868;2024-02-04T07:46:54;21.05;47.10
66962;HTU21D;53897;51.126;5.868;2024-02-04T07:49:20;21.08;47.14
66962;HTU21D;53897;51.126;5.868;2024-02-04T07:51:45;21.11;47.17
66962;HTU21D;53897;51.126;5.868;2024-02-04T07:54:11;21.14;47.19
66962;HTU21D;53897;51.126;5.868;2024-02-04T07:56:37;21.17;47.18
66962;HTU21D;53897;51.126;5.868;2024-02-04T07:59:03;21.17;47.16
66962;HTU21D;53897;51.126;5.868;2024-02-04T08:01:29;21.20;47.16
66962;HTU21D;53897;51.126;5.868;2024-02-04T08:03:56;21.21;47.16
66962;HTU21D;53897;51.126;5.868;2024-02-04T08:06:22;21.23;47.17
66962;HTU21D;53897;51.126;5.868;2024-02-04T08:08:47;21.24;47.08
66962;HTU21D;53897;51.126;5.868;2024-02-04T08:11:17;21.25;46.99
66962;HTU21D;53897;51.126;5.868;2024-02-04T08:13:43;21.29;47.02
66962;HTU21D;53897;51.126;5.868;2024-02-04T08:16:10;21.30;46.84
66962;HTU21D;53897;51.126;5.868;2024-02-04T08:18:36;21.31;46.67
66962;HTU21D;53897;51.126;5.868;2024-02-04T08:21:02;21.34;46.55
66962;HTU21D;53897;51.126;5.868;2024-02-04T08:23:28;21.35;46.51
66962;HTU21D;53897;51.126;5.868;2024-02-04T08:25:54;21.34;46.54
66962;HTU21D;53897;51.126;5.868;2024-02-04T08:28:20;21.37;46.57
66962;HTU21D;53897;51.126;5.868;2024-02-04T08:30:45;21.39;46.61
66962;HTU21D;53897;51.126;5.868;2024-02-04T08:33:11;21.42;46.64
66962;HTU21D;53897;51.126;5.868;2024-02-04T08:35:37;21.42;46.63
66962;HTU21D;53897;51.126;5.868;2024-02-04T08:38:03;21.45;46.61
66962;HTU21D;53897;51.126;5.868;2024-02-04T08:40:29;21.47;46.58
66962;HTU21D;53897;51.126;5.868;2024-02-04T08:42:54;21.47;46.54
66962;HTU21D;53897;51.126;5.868;2024-02-04T08:45:20;21.48;46.48
66962;HTU21D;53897;51.126;5.868;2024-02-04T08:47:46;21.47;46.47
66962;HTU21D;53897;51.126;5.868;2024-02-04T08:50:11;21.48;46.47
66962;HTU21D;53897;51.126;5.868;2024-02-04T08:52:37;21.48;46.45
66962;HTU21D;53897;51.126;5.868;2024-02-04T08:55:04;21.47;46.46
66962;HTU21D;53897;51.126;5.868;2024-02-04T08:57:30;21.49;46.47
66962;HTU21D;53897;51.126;5.868;2024-02-04T08:59:55;21.50;46.48
66962;HTU21D;53897;51.126;5.868;2024-02-04T09:02:21;21.50;46.51
66962;HTU21D;53897;51.126;5.868;2024-02-04T09:04:47;21.52;46.57
66962;HTU21D;53897;51.126;5.868;2024-02-04T09:07:13;21.53;46.58
66962;HTU21D;53897;51.126;5.868;2024-02-04T09:09:38;21.55;46.60
66962;HTU21D;53897;51.126;5.868;2024-02-04T09:12:05;21.58;46.62
66962;HTU21D;53897;51.126;5.868;2024-02-04T09:14:31;21.60;46.61
66962;HTU21D;53897;51.126;5.868;2024-02-04T09:16:56;21.62;46.63
66962;HTU21D;53897;51.126;5.868;2024-02-04T09:19:22;21.64;46.64
66962;HTU21D;53897;51.126;5.868;2024-02-04T09:21:50;21.65;46.63
66962;HTU21D;53897;51.126;5.868;2024-02-04T09:24:15;21.67;46.60
66962;HTU21D;53897;51.126;5.868;2024-02-04T09:26:41;21.68;46.59
66962;HTU21D;53897;51.126;5.868;2024-02-04T09:29:07;21.70;46.59
66962;HTU21D;53897;51.126;5.868;2024-02-04T09:31:32;21.73;46.60
66962;HTU21D;53897;51.126;5.868;2024-02-04T09:33:58;21.73;46.62
66962;HTU21D;53897;51.126;5.868;2024-02-04T09:36:24;21.75;46.61
66962;HTU21D;53897;51.126;5.868;2024-02-04T09:38:50;21.77;46.60
66962;HTU21D;53897;51.126;5.868;2024-02-04T09:41:16;21.77;46.61
66962;HTU21D;53897;51.126;5.868;2024-02-04T09:43:43;21.79;46.63
66962;HTU21D;53897;51.126;5.868;2024-02-04T09:46:09;21.79;46.61
66962;HTU21D;53897;51.126;5.868;2024-02-04T09:48:38;21.81;46.58
66962;HTU21D;53897;51.126;5.868;2024-02-04T09:51:06;21.83;46.63
66962;HTU21D;53897;51.126;5.868;2024-02-04T09:53:33;21.84;46.60
66962;HTU21D;53897;51.126;5.868;2024-02-04T09:56:02;21.85;46.58
66962;HTU21D;53897;51.126;5.868;2024-02-04T09:58:29;21.87;46.55
66962;HTU21D;53897;51.126;5.868;2024-02-04T10:00:55;21.89;46.55
66962;HTU21D;53897;51.126;5.868;2024-02-04T10:03:21;21.92;46.54
66962;HTU21D;53897;51.126;5.868;2024-02-04T10:05:47;21.94;46.51
66962;HTU21D;53897;51.126;5.868;2024-02-04T10:08:14;21.93;46.51
66962;HTU21D;53897;51.126;5.868;2024-02-04T10:10:40;21.95;46.54
66962;HTU21D;53897;51.126;5.868;2024-02-04T10:13:10;21.96;46.60
66962;HTU21D;53897;51.126;5.868;2024-02-04T10:15:36;21.99;46.87
66962;HTU21D;53897;51.126;5.868;2024-02-04T10:18:04;22.01;47.25
66962;HTU21D;53897;51.126;5.868;2024-02-04T10:20:31;22.03;47.83
66962;HTU21D;53897;51.126;5.868;2024-02-04T10:22:57;22.06;48.07
66962;HTU21D;53897;51.126;5.868;2024-02-04T10:25:22;22.08;48.30
66962;HTU21D;53897;51.126;5.868;2024-02-04T10:27:48;22.10;48.45
66962;HTU21D;53897;51.126;5.868;2024-02-04T10:30:14;22.13;48.96
66962;HTU21D;53897;51.126;5.868;2024-02-04T10:32:41;22.13;49.21
66962;HTU21D;53897;51.126;5.868;2024-02-04T10:35:08;22.14;49.18
66962;HTU21D;53897;51.126;5.868;2024-02-04T10:37:34;22.16;49.04
66962;HTU21D;53897;51.126;5.868;2024-02-04T10:40:00;22.17;48.89
66962;HTU21D;53897;51.126;5.868;2024-02-04T10:42:27;22.18;48.74
66962;HTU21D;53897;51.126;5.868;2024-02-04T10:44:54;22.18;48.73
66962;HTU21D;53897;51.126;5.868;2024-02-04T10:47:29;22.16;48.74
66962;HTU21D;53897;51.126;5.868;2024-02-04T10:49:58;22.14;48.73
66962;HTU21D;53897;51.126;5.868;2024-02-04T10:52:27;22.11;48.68
66962;HTU21D;53897;51.126;5.868;2024-02-04T10:54:53;22.13;48.59
66962;HTU21D;53897;51.126;5.868;2024-02-04T10:57:23;22.13;48.51
66962;HTU21D;53897;51.126;5.868;2024-02-04T10:59:49;22.13;48.51
66962;HTU21D;53897;51.126;5.868;2024-02-04T11:02:16;22.13;48.63
66962;HTU21D;53897;51.126;5.868;2024-02-04T11:04:43;22.16;48.70
66962;HTU21D;53897;51.126;5.868;2024-02-04T11:07:10;22.18;48.73
66962;HTU21D;53897;51.126;5.868;2024-02-04T11:09:37;22.18;48.70
66962;HTU21D;53897;51.126;5.868;2024-02-04T11:12:09;22.19;48.63
66962;HTU21D;53897;51.126;5.868;2024-02-04T11:14:39;22.20;48.58
66962;HTU21D;53897;51.126;5.868;2024-02-04T11:23:38;22.21;48.37
66962;HTU21D;53897;51.126;5.868;2024-02-04T11:26:07;22.19;48.33
66962;HTU21D;53897;51.126;5.868;2024-02-04T11:28:33;22.18;48.28
66962;HTU21D;53897;51.126;5.868;2024-02-04T11:30:59;22.18;48.23
66962;HTU21D;53897;51.126;5.868;2024-02-04T11:33:27;22.14;48.34
66962;HTU21D;53897;51.126;5.868;2024-02-04T11:36:06;22.12;48.39
66962;HTU21D;53897;51.126;5.868;2024-02-04T11:38:38;22.13;48.39
66962;HTU21D;53897;51.126;5.868;2024-02-04T11:41:04;22.12;48.41
66962;HTU21D;53897;51.126;5.868;2024-02-04T11:43:33;22.12;48.45
66962;HTU21D;53897;51.126;5.868;2024-02-04T11:46:00;22.10;48.52
66962;HTU21D;53897;51.126;5.868;2024-02-04T11:48:34;22.08;48.54
66962;HTU21D;53897;51.126;5.868;2024-02-04T11:51:00;22.05;48.61
66962;HTU21D;53897;51.126;5.868;2024-02-04T11:53:26;22.04;48.63
66962;HTU21D;53897;51.126;5.868;2024-02-04T11:55:58;22.03;48.65
66962;HTU21D;53897;51.126;5.868;2024-02-04T11:58:27;22.01;48.67
66962;HTU21D;53897;51.126;5.868;2024-02-04T12:00:53;21.98;48.70
66962;HTU21D;53897;51.126;5.868;2024-02-04T12:03:33;21.97;48.73
66962;HTU21D;53897;51.126;5.868;2024-02-04T12:05:59;21.97;48.66
66962;HTU21D;53897;51.126;5.868;2024-02-04T12:08:32;22.01;48.63
66962;HTU21D;53897;51.126;5.868;2024-02-04T12:10:59;22.03;48.56
66962;HTU21D;53897;51.126;5.868;2024-02-04T12:13:28;22.04;48.50
66962;HTU21D;53897;51.126;5.868;2024-02-04T12:15:54;22.08;48.46
66962;HTU21D;53897;51.126;5.868;2024-02-04T12:18:20;22.08;48.42
66962;HTU21D;53897;51.126;5.868;2024-02-04T12:20:47;22.09;48.35
66962;HTU21D;53897;51.126;5.868;2024-02-04T12:23:17;22.09;48.33
66962;HTU21D;53897;51.126;5.868;2024-02-04T12:25:44;22.11;48.28
66962;HTU21D;53897;51.126;5.868;2024-02-04T12:28:10;22.10;48.24
66962;HTU21D;53897;51.126;5.868;2024-02-04T12:30:36;22.11;48.22
66962;HTU21D;53897;51.126;5.868;2024-02-04T12:33:03;22.10;48.19
66962;HTU21D;53897;51.126;5.868;2024-02-04T12:35:30;22.12;48.21
66962;HTU21D;53897;51.126;5.868;2024-02-04T12:37:57;22.11;48.25
66962;HTU21D;53897;51.126;5.868;2024-02-04T12:40:24;22.10;48.34
66962;HTU21D;53897;51.126;5.868;2024-02-04T12:42:58;22.09;48.39
66962;HTU21D;53897;51.126;5.868;2024-02-04T12:45:25;22.10;48.37
66962;HTU21D;53897;51.126;5.868;2024-02-04T12:47:52;22.12;48.31
66962;HTU21D;53897;51.126;5.868;2024-02-04T12:50:19;22.14;48.23
66962;HTU21D;53897;51.126;5.868;2024-02-04T12:52:47;22.16;48.15
66962;HTU21D;53897;51.126;5.868;2024-02-04T12:55:24;22.18;48.06
66962;HTU21D;53897;51.126;5.868;2024-02-04T12:57:51;22.18;48.01
66962;HTU21D;53897;51.126;5.868;2024-02-04T13:00:26;22.18;47.94
66962;HTU21D;53897;51.126;5.868;2024-02-04T13:02:52;22.18;47.88
66962;HTU21D;53897;51.126;5.868;2024-02-04T13:05:24;22.18;47.61
66962;HTU21D;53897;51.126;5.868;2024-02-04T13:07:57;22.17;47.41
66962;HTU21D;53897;51.126;5.868;2024-02-04T13:10:26;22.14;47.35
66962;HTU21D;53897;51.126;5.868;2024-02-04T13:13:07;22.12;47.28
66962;HTU21D;53897;51.126;5.868;2024-02-04T13:15:44;22.13;47.29
66962;HTU21D;53897;51.126;5.868;2024-02-04T13:18:10;22.13;47.36
66962;HTU21D;53897;51.126;5.868;2024-02-04T13:20:41;22.12;47.38
66962;HTU21D;53897;51.126;5.868;2024-02-04T13:23:08;22.13;47.38
66962;HTU21D;53897;51.126;5.868;2024-02-04T13:25:34;22.13;47.39
66962;HTU21D;53897;51.126;5.868;2024-02-04T13:28:00;22.13;47.44
66962;HTU21D;53897;51.126;5.868;2024-02-04T13:30:27;22.13;47.50
66962;HTU21D;53897;51.126;5.868;2024-02-04T13:32:53;22.13;47.57
66962;HTU21D;53897;51.126;5.868;2024-02-04T13:35:18;22.13;47.60
66962;HTU21D;53897;51.126;5.868;2024-02-04T13:37:46;22.16;47.62
66962;HTU21D;53897;51.126;5.868;2024-02-04T13:40:14;22.16;47.67
66962;HTU21D;53897;51.126;5.868;2024-02-04T13:42:40;22.16;47.67
66962;HTU21D;53897;51.126;5.868;2024-02-04T13:45:06;22.17;47.66
66962;HTU21D;53897;51.126;5.868;2024-02-04T13:47:32;22.18;47.63
66962;HTU21D;53897;51.126;5.868;2024-02-04T13:49:58;22.19;47.62
66962;HTU21D;53897;51.126;5.868;2024-02-04T13:52:23;22.19;47.58
66962;HTU21D;53897;51.126;5.868;2024-02-04T13:54:49;22.20;47.50
66962;HTU21D;53897;51.126;5.868;2024-02-04T13:57:15;22.22;47.45
66962;HTU21D;53897;51.126;5.868;2024-02-04T13:59:41;22.23;47.41
66962;HTU21D;53897;51.126;5.868;2024-02-04T14:02:07;22.23;47.33
66962;HTU21D;53897;51.126;5.868;2024-02-04T14:04:36;22.22;47.31
66962;HTU21D;53897;51.126;5.868;2024-02-04T14:07:02;22.22;47.26
66962;HTU21D;53897;51.126;5.868;2024-02-04T14:09:29;22.22;47.23
66962;HTU21D;53897;51.126;5.868;2024-02-04T14:11:54;22.21;47.19
66962;HTU21D;53897;51.126;5.868;2024-02-04T14:14:22;22.21;47.16
66962;HTU21D;53897;51.126;5.868;2024-02-04T14:16:48;22.20;47.15
66962;HTU21D;53897;51.126;5.868;2024-02-04T14:19:13;22.18;47.15
66962;HTU21D;53897;51.126;5.868;2024-02-04T14:21:41;22.17;47.10
66962;HTU21D;53897;51.126;5.868;2024-02-04T14:24:06;22.16;47.09
66962;HTU21D;53897;51.126;5.868;2024-02-04T14:26:32;22.14;47.09
66962;HTU21D;53897;51.126;5.868;2024-02-04T14:28:58;22.14;47.08
66962;HTU21D;53897;51.126;5.868;2024-02-04T14:31:24;22.16;47.04
66962;HTU21D;53897;51.126;5.868;2024-02-04T14:33:50;22.14;47.03
66962;HTU21D;53897;51.126;5.868;2024-02-04T14:36:16;22.17;47.01
66962;HTU21D;53897;51.126;5.868;2024-02-04T14:38:43;22.17;47.00
66962;HTU21D;53897;51.126;5.868;2024-02-04T14:41:08;22.17;47.00
66962;HTU21D;53897;51.126;5.868;2024-02-04T14:43:35;22.17;46.99
66962;HTU21D;53897;51.126;5.868;2024-02-04T14:46:01;22.17;46.97
66962;HTU21D;53897;51.126;5.868;2024-02-04T14:48:27;22.16;46.93
66962;HTU21D;53897;51.126;5.868;2024-02-04T14:50:53;22.14;46.93
66962;HTU21D;53897;51.126;5.868;2024-02-04T14:53:19;22.13;46.89
66962;HTU21D;53897;51.126;5.868;2024-02-04T14:55:45;22.12;46.90
66962;HTU21D;53897;51.126;5.868;2024-02-04T14:58:11;22.10;46.92
66962;HTU21D;53897;51.126;5.868;2024-02-04T15:00:37;22.09;46.93
66962;HTU21D;53897;51.126;5.868;2024-02-04T15:03:03;22.08;46.93
66962;HTU21D;53897;51.126;5.868;2024-02-04T15:05:30;22.08;46.91
66962;HTU21D;53897;51.126;5.868;2024-02-04T15:07:56;22.08;46.92
66962;HTU21D;53897;51.126;5.868;2024-02-04T15:10:22;22.05;46.97
66962;HTU21D;53897;51.126;5.868;2024-02-04T15:12:49;22.08;47.02
66962;HTU21D;53897;51.126;5.868;2024-02-04T15:15:15;22.09;47.05
66962;HTU21D;53897;51.126;5.868;2024-02-04T15:17:41;22.10;47.05
66962;HTU21D;53897;51.126;5.868;2024-02-04T15:20:07;22.12;47.04
66962;HTU21D;53897;51.126;5.868;2024-02-04T15:22:35;22.13;47.04
66962;HTU21D;53897;51.126;5.868;2024-02-04T15:25:01;22.13;46.99